createdAt,value
2018-06-27T00:01:17.814Z,97.60
2018-06-27T00:03:46.456Z,97.40
2018-06-27T00:06:16.543Z,97.60
2018-06-27T00:11:15.254Z,97.40
2018-06-27T00:13:43.852Z,97.60
2018-06-27T00:16:12.511Z,97.50
2018-06-27T00:21:09.563Z,97.60
2018-06-27T00:23:38.103Z,98.00
2018-06-27T00:26:06.723Z,98.00
2018-06-27T00:28:35.240Z,97.80
2018-06-27T00:31:03.795Z,98.30
2018-06-27T00:33:32.377Z,98.20
2018-06-27T00:36:00.885Z,98.00
2018-06-27T00:40:57.734Z,98.20
2018-06-27T00:45:54.616Z,98.30
2018-06-27T00:48:23.155Z,98.30
2018-06-27T00:53:20.012Z,98.40
2018-06-27T00:55:48.560Z,98.50
2018-06-27T00:58:17.183Z,98.50
2018-06-27T01:00:45.832Z,98.50
2018-06-27T01:03:14.817Z,98.60
2018-06-27T01:05:43.391Z,98.70
2018-06-27T01:08:11.931Z,98.90
2018-06-27T01:10:40.625Z,99.10
2018-06-27T01:13:09.095Z,99.60
2018-06-27T01:15:37.652Z,99.30
2018-06-27T01:18:06.266Z,99.30
2018-06-27T01:20:34.797Z,99.40
2018-06-27T01:23:03.356Z,99.40
2018-06-27T01:25:31.910Z,99.50
2018-06-27T01:28:00.472Z,99.50
2018-06-27T01:30:29.023Z,99.50
2018-06-27T01:32:57.562Z,99.50
2018-06-27T01:40:22.718Z,99.80
2018-06-27T01:42:51.289Z,99.70
2018-06-27T01:45:19.855Z,99.70
2018-06-27T01:47:48.359Z,99.90
2018-06-27T01:50:17.940Z,99.90
2018-06-27T01:52:46.499Z,99.90
2018-06-27T01:55:16.247Z,99.90
2018-06-27T02:02:42.295Z,99.90
2018-06-27T02:05:10.848Z,99.90
2018-06-27T02:07:39.414Z,99.90
2018-06-27T02:10:08.009Z,99.90
2018-06-27T02:12:36.540Z,99.90
2018-06-27T02:17:33.457Z,99.90
2018-06-27T02:20:01.956Z,99.90
2018-06-27T02:22:30.520Z,99.90
2018-06-27T02:24:59.036Z,99.90
2018-06-27T02:27:27.638Z,99.90
2018-06-27T02:29:56.158Z,99.90
2018-06-27T02:32:24.764Z,99.90
2018-06-27T02:34:53.277Z,99.90
2018-06-27T02:37:21.836Z,99.90
2018-06-27T02:39:50.407Z,99.90
2018-06-27T02:42:18.979Z,99.90
2018-06-27T02:44:47.504Z,99.90
2018-06-27T02:47:17.362Z,99.90
2018-06-27T02:49:47.036Z,99.90
2018-06-27T02:52:16.540Z,99.90
2018-06-27T02:57:13.459Z,99.90
2018-06-27T02:59:42.019Z,99.90
2018-06-27T03:02:10.579Z,99.90
2018-06-27T03:04:39.158Z,99.90
2018-06-27T03:09:36.023Z,99.90
2018-06-27T03:12:04.580Z,99.90
2018-06-27T03:14:33.152Z,99.90
2018-06-27T03:17:01.734Z,99.90
2018-06-27T03:19:30.322Z,99.90
2018-06-27T03:21:58.876Z,99.90
2018-06-27T03:24:27.457Z,99.90
2018-06-27T03:26:55.996Z,99.90
2018-06-27T03:29:24.583Z,99.90
2018-06-27T03:31:53.255Z,99.90
2018-06-27T03:34:23.260Z,99.90
2018-06-27T03:36:52.829Z,99.90
2018-06-27T03:39:23.075Z,99.90
2018-06-27T03:41:52.346Z,99.90
2018-06-27T03:44:21.568Z,99.90
2018-06-27T03:46:51.640Z,99.90
2018-06-27T03:51:49.371Z,99.90
2018-06-27T03:54:17.898Z,99.90
2018-06-27T03:56:46.510Z,99.90
2018-06-27T03:59:15.040Z,99.90
2018-06-27T04:01:43.564Z,99.90
2018-06-27T04:06:40.351Z,99.90
2018-06-27T04:09:10.313Z,99.90
2018-06-27T04:11:39.272Z,99.90
2018-06-27T04:14:08.993Z,99.90
2018-06-27T04:16:37.590Z,99.90
2018-06-27T04:19:06.154Z,99.90
2018-06-27T04:21:34.703Z,99.90
2018-06-27T04:24:03.271Z,99.90
2018-06-27T04:29:00.075Z,99.90
2018-06-27T04:31:28.647Z,99.90
2018-06-27T04:33:57.252Z,99.90
2018-06-27T04:36:26.509Z,99.90
2018-06-27T04:38:55.084Z,99.90
2018-06-27T04:41:23.830Z,99.90
2018-06-27T04:43:52.535Z,99.90
2018-06-27T04:51:17.659Z,99.90
2018-06-27T04:53:46.169Z,99.90
2018-06-27T04:56:15.427Z,99.90
2018-06-27T04:58:44.340Z,99.90
2018-06-27T05:03:41.577Z,99.90
2018-06-27T05:06:10.267Z,99.90
2018-06-27T05:08:38.995Z,99.90
2018-06-27T05:13:35.933Z,99.90
2018-06-27T05:16:04.689Z,99.90
2018-06-27T05:18:33.180Z,99.90
2018-06-27T05:21:01.768Z,99.00
2018-06-27T05:23:30.294Z,98.80
2018-06-27T05:25:58.891Z,98.40
2018-06-27T05:28:27.444Z,97.70
2018-06-27T05:33:24.311Z,96.50
2018-06-27T05:35:54.352Z,96.00
2018-06-27T05:38:23.577Z,95.20
2018-06-27T05:40:52.199Z,94.50
2018-06-27T05:45:49.881Z,94.20
2018-06-27T05:50:46.759Z,93.30
2018-06-27T05:53:15.300Z,92.80
2018-06-27T05:55:43.872Z,93.40
2018-06-27T05:58:12.510Z,92.20
2018-06-27T06:00:41.231Z,91.80
2018-06-27T06:03:09.757Z,91.30
2018-06-27T06:08:11.168Z,91.90
2018-06-27T06:10:39.768Z,90.70
2018-06-27T06:13:08.319Z,91.20
2018-06-27T06:15:36.974Z,91.50
2018-06-27T06:20:33.955Z,90.60
2018-06-27T06:23:02.619Z,90.20
2018-06-27T06:25:31.215Z,90.40
2018-06-27T06:32:56.475Z,86.90
2018-06-27T06:35:26.131Z,85.60
2018-06-27T06:37:54.762Z,85.10
2018-06-27T06:40:23.983Z,84.10
2018-06-27T06:42:53.317Z,83.10
2018-06-27T06:45:22.632Z,82.30
2018-06-27T06:50:20.311Z,79.50
2018-06-27T06:52:48.880Z,78.40
2018-06-27T06:55:17.501Z,78.20
2018-06-27T06:57:46.061Z,77.80
2018-06-27T07:00:14.616Z,75.40
2018-06-27T07:02:44.313Z,76.40
2018-06-27T07:05:12.882Z,76.20
2018-06-27T07:07:41.526Z,75.00
2018-06-27T07:12:38.320Z,71.60
2018-06-27T07:15:06.926Z,72.50
2018-06-27T07:17:35.606Z,70.70
2018-06-27T07:20:04.303Z,68.70
2018-06-27T07:22:32.899Z,69.00
2018-06-27T07:25:01.597Z,70.30
2018-06-27T07:27:30.143Z,69.20
2018-06-27T07:32:28.176Z,67.50
2018-06-27T07:34:56.786Z,69.80
2018-06-27T07:37:25.413Z,67.80
2018-06-27T07:39:54.040Z,64.30
2018-06-27T07:42:22.622Z,65.90
2018-06-27T07:44:52.219Z,65.00
2018-06-27T07:47:21.891Z,64.80
2018-06-27T07:49:51.111Z,64.50
2018-06-27T07:52:20.877Z,64.70
2018-06-27T07:59:46.991Z,62.10
2018-06-27T08:02:15.630Z,67.20
2018-06-27T08:04:44.256Z,64.90
2018-06-27T08:07:12.875Z,63.40
2018-06-27T08:09:45.741Z,64.90
2018-06-27T08:12:18.761Z,67.30
2018-06-27T08:14:47.687Z,65.90
2018-06-27T08:17:17.681Z,65.30
2018-06-27T08:19:46.607Z,63.90
2018-06-27T08:22:16.545Z,64.10
2018-06-27T08:24:45.971Z,61.70
2018-06-27T08:27:15.554Z,60.20
2018-06-27T08:29:44.648Z,60.90
2018-06-27T08:32:13.921Z,60.30
2018-06-27T08:37:11.899Z,59.30
2018-06-27T08:39:40.613Z,59.50
2018-06-27T08:42:09.325Z,59.40
2018-06-27T08:44:38.116Z,60.60
2018-06-27T08:47:06.836Z,59.50
2018-06-27T08:49:35.514Z,58.10
2018-06-27T08:52:04.298Z,58.40
2018-06-27T08:57:06.037Z,60.80
2018-06-27T08:59:34.650Z,56.00
2018-06-27T09:04:31.776Z,54.60
2018-06-27T09:07:00.852Z,53.00
2018-06-27T09:09:30.035Z,54.90
2018-06-27T09:11:58.921Z,50.70
2018-06-27T09:14:27.997Z,52.30
2018-06-27T09:16:56.909Z,53.90
2018-06-27T09:19:25.532Z,56.20
2018-06-27T09:21:54.502Z,57.20
2018-06-27T09:24:23.250Z,55.60
2018-06-27T09:26:52.765Z,57.20
2018-06-27T09:29:22.128Z,58.50
2018-06-27T09:31:51.452Z,58.80
2018-06-27T09:36:49.445Z,57.60
2018-06-27T09:39:18.325Z,56.30
2018-06-27T09:41:47.237Z,54.00
2018-06-27T09:44:16.213Z,55.50
2018-06-27T09:46:45.078Z,57.00
2018-06-27T09:51:42.705Z,56.70
2018-06-27T09:54:11.575Z,55.80
2018-06-27T09:56:41.329Z,54.90
2018-06-27T09:59:11.152Z,55.10
2018-06-27T10:01:40.109Z,55.70
2018-06-27T10:04:08.882Z,56.10
2018-06-27T10:06:38.128Z,56.90
2018-06-27T10:09:10.132Z,57.50
2018-06-27T10:11:39.424Z,56.90
2018-06-27T10:14:08.227Z,55.10
2018-06-27T10:16:37.324Z,56.40
2018-06-27T10:19:06.023Z,56.50
2018-06-27T10:21:34.844Z,57.00
2018-06-27T10:24:03.958Z,57.50
2018-06-27T10:26:32.785Z,57.90
2018-06-27T10:29:01.828Z,57.60
2018-06-27T10:31:30.873Z,55.90
2018-06-27T10:33:59.743Z,56.10
2018-06-27T10:38:56.931Z,55.80
2018-06-27T10:41:27.299Z,55.30
2018-06-27T10:43:56.300Z,55.80
2018-06-27T10:46:25.256Z,54.60
2018-06-27T10:48:54.918Z,55.00
2018-06-27T10:51:24.188Z,55.30
2018-06-27T10:53:53.197Z,55.70
2018-06-27T10:56:22.033Z,54.90
2018-06-27T10:58:51.980Z,54.90
2018-06-27T11:01:21.336Z,54.50
2018-06-27T11:06:20.748Z,53.40
2018-06-27T11:08:49.733Z,53.30
2018-06-27T11:13:47.392Z,52.30
2018-06-27T11:16:16.561Z,52.70
2018-06-27T11:18:45.524Z,53.40
2018-06-27T11:21:14.272Z,53.10
2018-06-27T11:23:43.216Z,53.70
2018-06-27T11:26:12.496Z,54.00
2018-06-27T11:28:41.641Z,52.90
2018-06-27T11:31:12.670Z,52.10
2018-06-27T11:33:41.655Z,50.90
2018-06-27T11:36:10.599Z,51.60
2018-06-27T11:41:07.913Z,50.30
2018-06-27T11:43:36.628Z,50.70
2018-06-27T11:46:05.831Z,50.90
2018-06-27T11:48:34.835Z,51.30
2018-06-27T11:53:32.631Z,51.10
2018-06-27T11:56:01.664Z,50.10
2018-06-27T11:58:44.941Z,50.20
2018-06-27T12:01:14.573Z,49.70
2018-06-27T12:03:43.389Z,49.70
2018-06-27T12:06:12.071Z,50.70
2018-06-27T12:08:40.631Z,50.20
2018-06-27T12:13:37.670Z,50.80
2018-06-27T12:16:06.344Z,50.10
2018-06-27T12:18:34.938Z,50.30
2018-06-27T12:21:03.508Z,49.60
2018-06-27T12:23:32.073Z,48.20
2018-06-27T12:26:00.790Z,48.40
2018-06-27T12:28:29.666Z,48.70
2018-06-27T12:31:00.050Z,48.40
2018-06-27T12:33:28.703Z,48.10
2018-06-27T12:35:57.287Z,48.10
2018-06-27T12:40:54.317Z,48.60
2018-06-27T12:43:23.564Z,48.90
2018-06-27T12:48:21.588Z,48.80
2018-06-27T12:50:50.237Z,49.50
2018-06-27T12:55:47.244Z,46.90
2018-06-27T12:58:15.793Z,45.90
2018-06-27T13:00:44.452Z,45.30
2018-06-27T13:05:41.476Z,44.90
2018-06-27T13:08:10.055Z,45.70
2018-06-27T13:10:38.644Z,46.10
2018-06-27T13:13:07.209Z,46.40
2018-06-27T13:15:35.811Z,47.30
2018-06-27T13:18:04.697Z,46.60
2018-06-27T13:20:33.286Z,47.90
2018-06-27T13:23:01.845Z,48.60
2018-06-27T13:25:30.440Z,47.90
2018-06-27T13:27:59.075Z,45.50
2018-06-27T13:30:27.669Z,43.60
2018-06-27T13:32:56.239Z,44.70
2018-06-27T13:35:25.027Z,43.10
2018-06-27T13:40:23.375Z,44.70
2018-06-27T13:42:52.993Z,43.90
2018-06-27T13:45:21.957Z,42.50
2018-06-27T13:47:50.618Z,41.20
2018-06-27T13:50:19.253Z,41.00
2018-06-27T13:52:47.876Z,41.00
2018-06-27T13:57:44.964Z,41.80
2018-06-27T14:00:13.735Z,41.40
2018-06-27T14:02:42.360Z,42.00
2018-06-27T14:05:10.994Z,40.80
2018-06-27T14:10:07.976Z,41.50
2018-06-27T14:12:36.627Z,41.60
2018-06-27T14:15:05.376Z,41.20
2018-06-27T14:17:33.961Z,41.60
2018-06-27T14:20:02.719Z,41.70
2018-06-27T14:22:31.296Z,42.60
2018-06-27T14:24:59.945Z,41.70
2018-06-27T14:27:29.013Z,42.70
2018-06-27T14:29:57.620Z,42.60
2018-06-27T14:32:26.307Z,42.10
2018-06-27T14:34:55.697Z,42.20
2018-06-27T14:37:25.597Z,42.40
2018-06-27T14:39:55.160Z,42.70
2018-06-27T14:42:24.935Z,43.60
2018-06-27T14:44:54.800Z,44.10
2018-06-27T14:47:24.116Z,44.50
2018-06-27T14:49:53.572Z,44.60
2018-06-27T14:52:23.299Z,44.70
2018-06-27T14:54:53.245Z,45.00
2018-06-27T14:57:22.367Z,44.50
2018-06-27T14:59:50.987Z,43.60
2018-06-27T15:02:19.631Z,42.60
2018-06-27T15:04:48.333Z,42.70
2018-06-27T15:07:17.000Z,42.50
2018-06-27T15:09:45.708Z,42.30
2018-06-27T15:12:14.321Z,42.10
2018-06-27T15:14:42.862Z,42.20
2018-06-27T15:17:11.542Z,41.50
2018-06-27T15:19:40.245Z,42.00
2018-06-27T15:22:08.903Z,43.00
2018-06-27T15:24:37.449Z,43.20
2018-06-27T15:27:06.093Z,43.60
2018-06-27T15:29:34.700Z,44.30
2018-06-27T15:32:03.322Z,44.50
2018-06-27T15:34:31.955Z,45.20
2018-06-27T15:37:00.547Z,44.60
2018-06-27T15:41:57.530Z,45.90
2018-06-27T15:44:26.258Z,45.80
2018-06-27T15:46:55.013Z,46.20
2018-06-27T15:49:23.720Z,46.00
2018-06-27T15:51:52.973Z,46.40
2018-06-27T15:56:49.966Z,45.70
2018-06-27T15:59:18.573Z,45.70
2018-06-27T16:01:47.205Z,45.90
2018-06-27T16:06:44.087Z,46.00
2018-06-27T16:09:12.726Z,45.00
2018-06-27T16:11:41.471Z,45.80
2018-06-27T16:14:10.045Z,46.50
2018-06-27T16:16:38.728Z,46.60
2018-06-27T16:19:07.374Z,46.90
2018-06-27T16:21:36.012Z,47.30
2018-06-27T16:24:04.836Z,47.40
2018-06-27T16:26:33.475Z,47.50
2018-06-27T16:29:02.107Z,47.10
2018-06-27T16:31:30.789Z,47.00
2018-06-27T16:33:59.451Z,45.90
2018-06-27T16:36:28.086Z,46.80
2018-06-27T16:38:56.781Z,46.20
2018-06-27T16:41:26.901Z,46.10
2018-06-27T16:51:24.196Z,46.80
2018-06-27T16:56:22.990Z,46.70
2018-06-27T16:58:53.277Z,47.00
2018-06-27T17:01:22.184Z,47.50
2018-06-27T17:03:50.913Z,47.00
2018-06-27T17:06:19.954Z,47.10
2018-06-27T17:08:48.978Z,47.50
2018-06-27T17:11:17.945Z,47.60
2018-06-27T17:13:46.822Z,48.00
2018-06-27T17:16:15.564Z,47.30
2018-06-27T17:18:44.437Z,48.30
2018-06-27T17:21:13.509Z,46.90
2018-06-27T17:23:42.613Z,46.90
2018-06-27T17:26:11.595Z,46.40
2018-06-27T17:28:40.476Z,46.70
2018-06-27T17:31:10.443Z,46.90
2018-06-27T17:36:08.343Z,47.60
2018-06-27T17:38:37.378Z,47.20
2018-06-27T17:41:06.723Z,46.90
2018-06-27T17:43:36.132Z,46.80
2018-06-27T17:46:06.902Z,46.60
2018-06-27T17:48:35.596Z,46.70
2018-06-27T17:51:04.168Z,48.00
2018-06-27T17:53:32.802Z,50.50
2018-06-27T17:58:30.101Z,49.30
2018-06-27T18:00:58.770Z,49.30
2018-06-27T18:05:57.060Z,49.90
2018-06-27T18:10:55.141Z,49.00
2018-06-27T18:18:21.519Z,50.30
2018-06-27T18:20:50.105Z,50.20
2018-06-27T18:25:48.061Z,50.20
2018-06-27T18:28:16.705Z,50.80
2018-06-27T18:30:46.433Z,51.00
2018-06-27T18:33:15.151Z,51.90
2018-06-27T18:38:12.124Z,53.10
2018-06-27T18:40:40.649Z,54.30
2018-06-27T18:43:09.207Z,54.70
2018-06-27T18:45:43.366Z,54.80
2018-06-27T18:48:11.884Z,55.30
2018-06-27T18:53:08.896Z,56.60
2018-06-27T18:55:37.585Z,57.90
2018-06-27T18:58:07.306Z,59.60
2018-06-27T19:00:35.905Z,61.10
2018-06-27T19:03:04.733Z,61.90
2018-06-27T19:05:33.425Z,63.10
2018-06-27T19:08:02.100Z,65.10
2018-06-27T19:10:30.729Z,66.60
2018-06-27T19:12:59.360Z,68.70
2018-06-27T19:17:56.299Z,72.60
2018-06-27T19:20:25.063Z,73.80
2018-06-27T19:22:53.816Z,75.00
2018-06-27T19:25:22.442Z,76.30
2018-06-27T19:27:51.165Z,77.50
2018-06-27T19:30:20.580Z,77.90
2018-06-27T19:32:50.584Z,79.50
2018-06-27T19:35:20.129Z,80.30
2018-06-27T19:37:52.984Z,81.00
2018-06-27T19:40:23.065Z,81.60
2018-06-27T19:42:51.685Z,82.50
2018-06-27T19:45:20.807Z,83.40
2018-06-27T19:47:50.650Z,83.60
2018-06-27T19:50:20.292Z,84.60
2018-06-27T19:52:48.919Z,84.70
2018-06-27T19:55:18.598Z,85.60
2018-06-27T19:57:48.395Z,86.40
2018-06-27T20:00:18.165Z,86.40
2018-06-27T20:02:47.260Z,86.70
2018-06-27T20:05:16.110Z,87.20
2018-06-27T20:07:44.741Z,87.60
2018-06-27T20:10:13.547Z,87.90
2018-06-27T20:12:42.474Z,88.40
2018-06-27T20:15:11.215Z,88.80
2018-06-27T20:17:39.899Z,89.70
2018-06-27T20:20:08.866Z,90.00
2018-06-27T20:22:37.712Z,90.50
2018-06-27T20:27:34.893Z,91.10
2018-06-27T20:30:03.531Z,91.40
2018-06-27T20:32:32.127Z,91.70
2018-06-27T20:35:00.683Z,91.80
2018-06-27T20:37:29.349Z,91.90
2018-06-27T20:39:57.944Z,92.10
2018-06-27T20:42:26.507Z,92.20
2018-06-27T20:44:55.105Z,92.40
2018-06-27T20:47:23.684Z,92.40
2018-06-27T20:49:52.299Z,92.40
2018-06-27T20:52:20.905Z,92.40
2018-06-27T20:54:49.487Z,92.40
2018-06-27T20:57:18.164Z,92.50
2018-06-27T20:59:48.045Z,92.40
2018-06-27T21:02:17.386Z,92.40
2018-06-27T21:04:46.483Z,92.50
2018-06-27T21:07:15.844Z,92.30
2018-06-27T21:09:44.387Z,92.00
2018-06-27T21:12:12.964Z,91.80
2018-06-27T21:14:41.725Z,91.90
2018-06-27T21:17:10.331Z,91.40
2018-06-27T21:19:39.008Z,91.60
2018-06-27T21:22:07.624Z,91.60
2018-06-27T21:27:06.585Z,91.70
2018-06-27T21:29:35.241Z,91.70
2018-06-27T21:32:03.847Z,91.70
2018-06-27T21:37:00.826Z,91.90
2018-06-27T21:39:29.426Z,91.80
2018-06-27T21:41:58.038Z,92.10
2018-06-27T21:44:26.613Z,92.30
2018-06-27T21:46:55.210Z,92.30
2018-06-27T21:49:23.816Z,92.30
2018-06-27T21:54:20.855Z,93.10
2018-06-27T21:56:51.503Z,92.90
2018-06-27T21:59:20.296Z,93.20
2018-06-27T22:01:48.945Z,93.30
2018-06-27T22:04:18.322Z,93.60
2018-06-27T22:06:48.251Z,93.90
2018-06-27T22:09:18.297Z,93.70
2018-06-27T22:11:47.646Z,93.40
2018-06-27T22:14:16.835Z,93.70
2018-06-27T22:16:46.110Z,93.70
2018-06-27T22:19:14.755Z,93.70
2018-06-27T22:21:43.387Z,93.80
2018-06-27T22:24:11.979Z,93.90
2018-06-27T22:26:40.601Z,94.00
2018-06-27T22:29:09.194Z,94.30
2018-06-27T22:31:37.861Z,94.20
2018-06-27T22:34:06.469Z,94.20
2018-06-27T22:36:35.123Z,94.40
2018-06-27T22:39:05.743Z,94.60
2018-06-27T22:41:34.474Z,94.60
2018-06-27T22:44:03.237Z,94.80
2018-06-27T22:46:31.876Z,94.60
2018-06-27T22:49:00.458Z,94.60
2018-06-27T22:51:29.099Z,94.70
2018-06-27T22:53:57.688Z,94.60
2018-06-27T22:56:26.325Z,94.50
2018-06-27T22:58:54.912Z,94.30
2018-06-27T23:01:23.555Z,94.30
2018-06-27T23:03:52.148Z,94.30
2018-06-27T23:06:20.733Z,94.30
2018-06-27T23:08:49.335Z,94.30
2018-06-27T23:13:46.304Z,94.10
2018-06-27T23:16:15.354Z,94.00
2018-06-27T23:18:44.032Z,94.10
2018-06-27T23:21:12.627Z,94.10
2018-06-27T23:23:41.286Z,94.00
2018-06-27T23:26:09.885Z,93.80
2018-06-27T23:28:38.467Z,93.70
2018-06-27T23:31:07.053Z,93.60
2018-06-27T23:33:36.761Z,93.50
2018-06-27T23:36:05.652Z,93.50
2018-06-27T23:38:34.249Z,93.50
2018-06-27T23:41:02.805Z,93.40
2018-06-27T23:43:31.388Z,93.40
2018-06-27T23:45:59.947Z,93.30
2018-06-27T23:48:28.539Z,93.30
2018-06-27T23:50:57.092Z,93.20
2018-06-27T23:55:53.966Z,93.10
2018-06-27T23:58:22.584Z,93.10
